Time,TemperatureF,DewpointF,PressureIn,WindDirection,WindDirectionDegrees,WindSpeedMPH,WindSpeedGustMPH,Humidity,HourlyPrecipIn,Conditions,Clouds,dailyrainin,SoftwareType,DateUTC
2013-12-02 00:23:00,35.0,35.0,30.14,NNE,18,0.0,0.0,100,0.00,,,0.00,,2013-12-02 05:23:00,
2013-12-02 00:53:00,34.0,34.0,30.13,NNE,18,0.0,0.0,100,0.00,,,0.00,,2013-12-02 05:53:00,
2013-12-02 01:22:00,34.0,34.0,30.12,NNE,18,0.0,0.0,100,0.00,,,0.00,,2013-12-02 06:22:00,
2013-12-02 01:52:00,33.0,33.0,30.11,NNE,18,0.0,0.0,100,0.00,,,0.00,,2013-12-02 06:52:00,
2013-12-02 02:21:00,33.0,33.0,30.10,NNE,18,0.0,0.0,100,0.00,,,0.00,,2013-12-02 07:21:00,
2013-12-02 02:52:00,33.0,33.0,30.10,NNE,18,0.0,0.0,100,0.00,,,0.00,,2013-12-02 07:52:00,
2013-12-02 03:22:00,33.0,33.0,30.09,NNE,18,0.0,0.0,100,0.00,,,0.00,,2013-12-02 08:22:00,
2013-12-02 03:42:00,32.0,32.0,30.08,NNE,18,0.0,0.0,100,0.00,,,0.00,,2013-12-02 08:42:00,
2013-12-02 03:52:00,33.0,33.0,30.08,NNE,18,0.0,0.0,100,0.00,,,0.00,,2013-12-02 08:52:00,
2013-12-02 04:22:00,33.0,33.0,30.07,NNE,18,0.0,0.0,100,0.00,,,0.00,,2013-12-02 09:22:00,
2013-12-02 04:54:00,33.0,33.0,30.06,NNE,18,0.0,0.0,100,0.00,,,0.00,,2013-12-02 09:54:00,
2013-12-02 05:23:00,34.0,34.0,30.06,NNE,18,0.0,0.0,100,0.00,,,0.00,,2013-12-02 10:23:00,
2013-12-02 05:52:00,34.0,34.0,30.05,NNE,18,0.0,0.0,100,0.00,,,0.00,,2013-12-02 10:52:00,
2013-12-02 06:22:00,34.0,34.0,30.06,NNE,18,0.0,0.0,100,0.00,,,0.00,,2013-12-02 11:22:00,
2013-12-02 06:52:00,35.0,35.0,30.06,WNW,302,0.0,0.0,100,0.00,,,0.00,,2013-12-02 11:52:00,
2013-12-02 07:22:00,36.0,36.0,30.06,WNW,302,0.0,0.0,100,0.00,,,0.00,,2013-12-02 12:22:00,
2013-12-02 07:52:00,36.0,36.0,30.06,WNW,302,0.0,0.0,100,0.00,,,0.00,,2013-12-02 12:52:00,
2013-12-02 08:22:00,37.0,37.0,30.06,WNW,302,0.0,0.0,99,0.00,,,0.00,,2013-12-02 13:22:00,
2013-12-02 11:53:00,56.0,43.0,30.03,SSE,149,1.0,2.0,61,0.00,,,0.00,,2013-12-02 16:53:00,
2013-12-02 12:22:00,55.0,41.0,30.01,South,184,5.0,7.0,58,0.00,,,0.00,,2013-12-02 17:22:00,
2013-12-02 12:52:00,57.0,42.0,29.98,West,273,5.0,6.0,58,0.00,,,0.00,,2013-12-02 17:52:00,
2013-12-02 13:22:00,57.0,42.0,29.97,SW,232,5.0,7.0,58,0.00,,,0.00,,2013-12-02 18:22:00,
2013-12-02 13:42:00,57.0,42.0,29.97,East,83,2.0,4.0,57,0.00,,,0.00,,2013-12-02 18:42:00,
2013-12-02 13:52:00,59.0,44.0,29.96,NW,305,1.0,1.0,57,0.00,,,0.00,,2013-12-02 18:52:00,
2013-12-02 14:22:00,60.0,45.0,29.95,SSE,162,3.0,6.0,57,0.00,,,0.00,,2013-12-02 19:22:00,
2013-12-02 14:52:00,57.0,43.0,29.94,SSW,212,4.0,6.0,60,0.00,,,0.00,,2013-12-02 19:52:00,
2013-12-02 15:21:00,58.0,43.0,29.93,South,174,2.0,4.0,58,0.00,,,0.00,,2013-12-02 20:21:00,
2013-12-02 15:52:00,58.0,45.0,29.93,South,190,4.0,7.0,61,0.00,,,0.00,,2013-12-02 20:52:00,
2013-12-02 16:21:00,57.0,44.0,29.94,SSW,203,3.0,6.0,62,0.00,,,0.00,,2013-12-02 21:21:00,
2013-12-02 16:53:00,57.0,45.0,29.94,SE,127,1.0,2.0,63,0.00,,,0.00,,2013-12-02 21:53:00,
2013-12-02 17:23:00,56.0,44.0,29.94,SE,129,0.0,0.0,64,0.00,,,0.00,,2013-12-02 22:23:00,
2013-12-02 17:53:00,55.0,44.0,29.95,ENE,73,0.0,0.0,66,0.00,,,0.00,,2013-12-02 22:53:00,
2013-12-02 18:22:00,54.0,44.0,29.96,ENE,73,0.0,0.0,69,0.00,,,0.00,,2013-12-02 23:22:00,
2013-12-02 18:53:00,54.0,44.0,29.96,ENE,73,0.0,0.0,70,0.00,,,0.00,,2013-12-02 23:53:00,
2013-12-02 19:21:00,52.0,44.0,29.97,NE,53,0.0,0.0,73,0.00,,,0.00,,2013-12-03 00:21:00,
2013-12-02 19:52:00,53.0,45.0,29.97,NE,53,0.0,0.0,73,0.00,,,0.00,,2013-12-03 00:52:00,
2013-12-02 20:21:00,52.0,45.0,29.98,NE,53,0.0,0.0,76,0.00,,,0.00,,2013-12-03 01:21:00,
2013-12-02 20:52:00,51.0,44.0,29.98,NE,53,0.0,0.0,78,0.00,,,0.00,,2013-12-03 01:52:00,
2013-12-02 21:21:00,50.0,44.0,29.98,WNW,290,0.0,0.0,80,0.00,,,0.00,,2013-12-03 02:21:00,
2013-12-02 21:42:00,50.0,44.0,29.98,WNW,290,0.0,0.0,80,0.00,,,0.00,,2013-12-03 02:42:00,
2013-12-02 21:52:00,50.0,45.0,29.99,WNW,290,0.0,0.0,82,0.00,,,0.00,,2013-12-03 02:52:00,
2013-12-02 22:22:00,50.0,45.0,29.99,WNW,290,0.0,0.0,82,0.00,,,0.00,,2013-12-03 03:22:00,
2013-12-02 22:53:00,49.0,45.0,29.99,WNW,290,0.0,0.0,85,0.00,,,0.00,,2013-12-03 03:53:00,
2013-12-02 23:13:00,49.0,45.0,30.00,WNW,290,0.0,0.0,86,0.00,,,0.00,,2013-12-03 04:13:00,
2013-12-02 23:23:00,49.0,45.0,29.99,WNW,290,0.0,0.0,86,0.00,,,0.00,,2013-12-03 04:23:00,
2013-12-02 23:52:00,48.0,44.0,30.00,WNW,290,0.0,0.0,86,0.00,,,0.00,,2013-12-03 04:52:00,